AOS48 EGKA-EGJJ
Flight info
| Callsign | AOS48 |
|---|---|
| Flight time | 1h 17m |
| Altitude | 8000 |
| Route | GWC Y8 SAM Q41 ORTAC |
| Aircraft | DA42/L-SBDGRY/S |
Departure
| Time | 2026-04-25 13:17 |
|---|---|
| Airport | Brighton City Airport (EGKA) |
Arrival
| Time | 2026-04-25 14:34 |
|---|---|
| Airport | Jersey Airport (EGJJ) |
| Time | Latitude | Longitude | Altitude | Speed | Heading |
|---|---|---|---|---|---|
| 2026-04-25 13:14 | 50.83955 | -0.29331 | 10 ft | 0 kts | 355° |
| 2026-04-25 13:15 | 50.83959 | -0.29332 | 10 ft | 3 kts | 349° |
| 2026-04-25 13:15 | 50.83986 | -0.29407 | 10 ft | 12 kts | 292° |
| 2026-04-25 13:16 | 50.83960 | -0.29482 | 10 ft | 10 kts | 201° |
| 2026-04-25 13:16 | 50.83809 | -0.29579 | 12 ft | 49 kts | 202° |
| 2026-04-25 13:16 | 50.83356 | -0.29857 | 71 ft | 80 kts | 201° |
| 2026-04-25 13:16 | 50.82835 | -0.30220 | 348 ft | 83 kts | 206° |
| 2026-04-25 13:17 | 50.82365 | -0.30746 | 631 ft | 86 kts | 236° |
| 2026-04-25 13:17 | 50.82317 | -0.31699 | 907 ft | 95 kts | 289° |
| 2026-04-25 13:17 | 50.82563 | -0.32637 | 1286 ft | 89 kts | 294° |
| 2026-04-25 13:17 | 50.82823 | -0.33614 | 1524 ft | 102 kts | 291° |
| 2026-04-25 13:18 | 50.83083 | -0.34701 | 1798 ft | 108 kts | 290° |
| 2026-04-25 13:18 | 50.83252 | -0.35446 | 1996 ft | 109 kts | 290° |
| 2026-04-25 13:18 | 50.83482 | -0.36593 | 2278 ft | 110 kts | 277° |
| 2026-04-25 13:18 | 50.83533 | -0.37797 | 2557 ft | 110 kts | 274° |
| 2026-04-25 13:19 | 50.83603 | -0.39005 | 2842 ft | 111 kts | 277° |
| 2026-04-25 13:19 | 50.83696 | -0.40215 | 3142 ft | 111 kts | 278° |
| 2026-04-25 13:19 | 50.83803 | -0.41421 | 3461 ft | 110 kts | 279° |
| 2026-04-25 13:19 | 50.83876 | -0.42216 | 3656 ft | 110 kts | 279° |
| 2026-04-25 13:20 | 50.84023 | -0.43820 | 3994 ft | 114 kts | 279° |
| 2026-04-25 13:20 | 50.84142 | -0.45113 | 3991 ft | 121 kts | 279° |
| 2026-04-25 13:20 | 50.84260 | -0.46444 | 3995 ft | 123 kts | 277° |
| 2026-04-25 13:20 | 50.84340 | -0.47798 | 3992 ft | 124 kts | 274° |
| 2026-04-25 13:21 | 50.84395 | -0.49155 | 3996 ft | 124 kts | 274° |
| 2026-04-25 13:21 | 50.84446 | -0.50520 | 3995 ft | 124 kts | 274° |
| 2026-04-25 13:21 | 50.84498 | -0.51881 | 3994 ft | 124 kts | 274° |
| 2026-04-25 13:21 | 50.84555 | -0.53233 | 3994 ft | 123 kts | 275° |
| 2026-04-25 13:22 | 50.84634 | -0.54577 | 3998 ft | 123 kts | 276° |
| 2026-04-25 13:22 | 50.84711 | -0.55920 | 3997 ft | 123 kts | 275° |
| 2026-04-25 13:22 | 50.84777 | -0.57263 | 3997 ft | 122 kts | 275° |
| 2026-04-25 13:23 | 50.84902 | -0.59927 | 3997 ft | 120 kts | 274° |
| 2026-04-25 13:23 | 50.84952 | -0.61249 | 4000 ft | 121 kts | 274° |
| 2026-04-25 13:23 | 50.85001 | -0.62578 | 4000 ft | 121 kts | 274° |
| 2026-04-25 13:23 | 50.85051 | -0.63908 | 3998 ft | 121 kts | 274° |
| 2026-04-25 13:24 | 50.85098 | -0.65195 | 4204 ft | 117 kts | 274° |
| 2026-04-25 13:24 | 50.85144 | -0.66497 | 4450 ft | 120 kts | 274° |
| 2026-04-25 13:24 | 50.85192 | -0.67826 | 4708 ft | 122 kts | 274° |
| 2026-04-25 13:24 | 50.85240 | -0.69173 | 4967 ft | 124 kts | 274° |
| 2026-04-25 13:25 | 50.85287 | -0.70536 | 5219 ft | 125 kts | 274° |
| 2026-04-25 13:25 | 50.85333 | -0.71913 | 5470 ft | 126 kts | 274° |
| 2026-04-25 13:25 | 50.85377 | -0.73298 | 5721 ft | 125 kts | 274° |
| 2026-04-25 13:25 | 50.85524 | -0.74649 | 5975 ft | 124 kts | 284° |
| 2026-04-25 13:26 | 50.85725 | -0.75977 | 6227 ft | 124 kts | 285° |
| 2026-04-25 13:26 | 50.85914 | -0.77291 | 6482 ft | 121 kts | 285° |
| 2026-04-25 13:26 | 50.86095 | -0.78584 | 6731 ft | 120 kts | 284° |
| 2026-04-25 13:26 | 50.86275 | -0.79873 | 6971 ft | 120 kts | 284° |
| 2026-04-25 13:27 | 50.86459 | -0.81163 | 7207 ft | 120 kts | 284° |
| 2026-04-25 13:27 | 50.86671 | -0.82437 | 7452 ft | 120 kts | 287° |
| 2026-04-25 13:27 | 50.86889 | -0.83715 | 7696 ft | 120 kts | 287° |
| 2026-04-25 13:27 | 50.87105 | -0.84987 | 7947 ft | 120 kts | 287° |
| 2026-04-25 13:28 | 50.87335 | -0.86336 | 7993 ft | 135 kts | 287° |
| 2026-04-25 13:28 | 50.87504 | -0.87312 | 7994 ft | 142 kts | 287° |
| 2026-04-25 13:28 | 50.87877 | -0.89412 | 7993 ft | 153 kts | 287° |
| 2026-04-25 13:28 | 50.88171 | -0.91057 | 7994 ft | 157 kts | 287° |
| 2026-04-25 13:29 | 50.88471 | -0.92733 | 7992 ft | 158 kts | 287° |
| 2026-04-25 13:29 | 50.88771 | -0.94413 | 7991 ft | 159 kts | 287° |
| 2026-04-25 13:29 | 50.89072 | -0.96098 | 7991 ft | 159 kts | 286° |
| 2026-04-25 13:30 | 50.89644 | -0.99492 | 7993 ft | 159 kts | 285° |
| 2026-04-25 13:30 | 50.89922 | -1.01157 | 7990 ft | 158 kts | 285° |
| 2026-04-25 13:30 | 50.90206 | -1.02863 | 7992 ft | 158 kts | 285° |
| 2026-04-25 13:31 | 50.90752 | -1.06147 | 8197 ft | 154 kts | 285° |
| 2026-04-25 13:31 | 50.91028 | -1.07810 | 8189 ft | 159 kts | 285° |
| 2026-04-25 13:31 | 50.91313 | -1.09524 | 8186 ft | 163 kts | 285° |
| 2026-04-25 13:31 | 50.91602 | -1.11266 | 8188 ft | 165 kts | 285° |
| 2026-04-25 13:32 | 50.91896 | -1.13030 | 8189 ft | 167 kts | 285° |
| 2026-04-25 13:32 | 50.92192 | -1.14813 | 8184 ft | 167 kts | 285° |
| 2026-04-25 13:32 | 50.92489 | -1.16596 | 8183 ft | 167 kts | 285° |
| 2026-04-25 13:32 | 50.92787 | -1.18381 | 8182 ft | 167 kts | 285° |
| 2026-04-25 13:33 | 50.93082 | -1.20160 | 8179 ft | 167 kts | 286° |
| 2026-04-25 13:33 | 50.93391 | -1.21927 | 8182 ft | 167 kts | 287° |
| 2026-04-25 13:33 | 50.93705 | -1.23697 | 8178 ft | 167 kts | 287° |
| 2026-04-25 13:33 | 50.93913 | -1.24866 | 8183 ft | 167 kts | 287° |
| 2026-04-25 13:34 | 50.94338 | -1.27235 | 8183 ft | 167 kts | 287° |
| 2026-04-25 13:34 | 50.94654 | -1.29009 | 8178 ft | 167 kts | 286° |
| 2026-04-25 13:34 | 50.94956 | -1.30779 | 8178 ft | 166 kts | 285° |
| 2026-04-25 13:34 | 50.95019 | -1.32593 | 8176 ft | 167 kts | 260° |
| 2026-04-25 13:35 | 50.94542 | -1.34268 | 8183 ft | 168 kts | 238° |
| 2026-04-25 13:35 | 50.93797 | -1.35673 | 8175 ft | 168 kts | 217° |
| 2026-04-25 13:35 | 50.92745 | -1.36436 | 8185 ft | 166 kts | 203° |
| 2026-04-25 13:35 | 50.91687 | -1.37164 | 8186 ft | 166 kts | 205° |
| 2026-04-25 13:36 | 50.90632 | -1.37906 | 8187 ft | 165 kts | 205° |
| 2026-04-25 13:36 | 50.89579 | -1.38647 | 8188 ft | 166 kts | 205° |
| 2026-04-25 13:36 | 50.88528 | -1.39390 | 8188 ft | 165 kts | 205° |
| 2026-04-25 13:36 | 50.87478 | -1.40136 | 8187 ft | 165 kts | 206° |
| 2026-04-25 13:37 | 50.86432 | -1.40896 | 8188 ft | 166 kts | 206° |
| 2026-04-25 13:37 | 50.85380 | -1.41647 | 8184 ft | 166 kts | 206° |
| 2026-04-25 13:37 | 50.84328 | -1.42386 | 8187 ft | 165 kts | 206° |
| 2026-04-25 13:37 | 50.83270 | -1.43126 | 8192 ft | 167 kts | 206° |
| 2026-04-25 13:38 | 50.82211 | -1.43872 | 8186 ft | 166 kts | 206° |
| 2026-04-25 13:38 | 50.81156 | -1.44612 | 8187 ft | 166 kts | 206° |
| 2026-04-25 13:38 | 50.80104 | -1.45348 | 8187 ft | 165 kts | 206° |
| 2026-04-25 13:38 | 50.79050 | -1.46085 | 8190 ft | 166 kts | 206° |
| 2026-04-25 13:39 | 50.78009 | -1.46819 | 8189 ft | 166 kts | 206° |
| 2026-04-25 13:39 | 50.76941 | -1.47567 | 8192 ft | 165 kts | 205° |
| 2026-04-25 13:39 | 50.75889 | -1.48298 | 8197 ft | 166 kts | 206° |
| 2026-04-25 13:39 | 50.74831 | -1.49035 | 8194 ft | 166 kts | 206° |
| 2026-04-25 13:40 | 50.73789 | -1.49765 | 8193 ft | 166 kts | 205° |
| 2026-04-25 13:40 | 50.72725 | -1.50509 | 8192 ft | 165 kts | 206° |
| 2026-04-25 13:40 | 50.71690 | -1.51232 | 8193 ft | 165 kts | 206° |
| 2026-04-25 13:40 | 50.70640 | -1.51965 | 8192 ft | 165 kts | 205° |
| 2026-04-25 13:41 | 50.69591 | -1.52697 | 8192 ft | 165 kts | 206° |
| 2026-04-25 13:41 | 50.68541 | -1.53428 | 8195 ft | 165 kts | 205° |
| 2026-04-25 13:41 | 50.67491 | -1.54158 | 8194 ft | 165 kts | 206° |
| 2026-04-25 13:41 | 50.66438 | -1.54894 | 8197 ft | 166 kts | 206° |
| 2026-04-25 13:42 | 50.65380 | -1.55631 | 8191 ft | 166 kts | 206° |
| 2026-04-25 13:42 | 50.64324 | -1.56364 | 8191 ft | 166 kts | 206° |
| 2026-04-25 13:42 | 50.63272 | -1.57096 | 8193 ft | 165 kts | 206° |
| 2026-04-25 13:42 | 50.62223 | -1.57825 | 8205 ft | 164 kts | 205° |
| 2026-04-25 13:43 | 50.61178 | -1.58550 | 8205 ft | 164 kts | 206° |
| 2026-04-25 13:43 | 50.60132 | -1.59277 | 8205 ft | 165 kts | 206° |
| 2026-04-25 13:43 | 50.59084 | -1.60005 | 8208 ft | 165 kts | 205° |
| 2026-04-25 13:43 | 50.58037 | -1.60731 | 8207 ft | 164 kts | 205° |
| 2026-04-25 13:44 | 50.56992 | -1.61455 | 8205 ft | 164 kts | 205° |
| 2026-04-25 13:44 | 50.55949 | -1.62178 | 8206 ft | 164 kts | 206° |
| 2026-04-25 13:44 | 50.54903 | -1.62902 | 8206 ft | 164 kts | 206° |
| 2026-04-25 13:44 | 50.53858 | -1.63627 | 8206 ft | 164 kts | 205° |
| 2026-04-25 13:45 | 50.52813 | -1.64350 | 8208 ft | 164 kts | 205° |
| 2026-04-25 13:45 | 50.51765 | -1.65074 | 8207 ft | 164 kts | 206° |
| 2026-04-25 13:45 | 50.50719 | -1.65798 | 8208 ft | 164 kts | 206° |
| 2026-04-25 13:45 | 50.49671 | -1.66522 | 8210 ft | 165 kts | 206° |
| 2026-04-25 13:46 | 50.48624 | -1.67245 | 8212 ft | 165 kts | 206° |
| 2026-04-25 13:46 | 50.47577 | -1.67968 | 8212 ft | 164 kts | 205° |
| 2026-04-25 13:46 | 50.46529 | -1.68691 | 8212 ft | 164 kts | 206° |
| 2026-04-25 13:46 | 50.45481 | -1.69414 | 8213 ft | 165 kts | 205° |
| 2026-04-25 13:47 | 50.44433 | -1.70135 | 8210 ft | 164 kts | 206° |
| 2026-04-25 13:47 | 50.43387 | -1.70856 | 8210 ft | 164 kts | 205° |
| 2026-04-25 13:47 | 50.42342 | -1.71576 | 8210 ft | 164 kts | 205° |
| 2026-04-25 13:47 | 50.41300 | -1.72293 | 8210 ft | 164 kts | 206° |
| 2026-04-25 13:48 | 50.40257 | -1.73010 | 8208 ft | 164 kts | 206° |
| 2026-04-25 13:48 | 50.39212 | -1.73730 | 8208 ft | 164 kts | 205° |
| 2026-04-25 13:48 | 50.38168 | -1.74447 | 8208 ft | 164 kts | 206° |
| 2026-04-25 13:48 | 50.37123 | -1.75164 | 8208 ft | 164 kts | 206° |
| 2026-04-25 13:49 | 50.36078 | -1.75882 | 8207 ft | 164 kts | 206° |
| 2026-04-25 13:49 | 50.35033 | -1.76599 | 8208 ft | 164 kts | 206° |
| 2026-04-25 13:49 | 50.33990 | -1.77315 | 8208 ft | 164 kts | 206° |
| 2026-04-25 13:49 | 50.32945 | -1.78031 | 8208 ft | 164 kts | 205° |
| 2026-04-25 13:50 | 50.31902 | -1.78745 | 8208 ft | 164 kts | 206° |
| 2026-04-25 13:50 | 50.30859 | -1.79460 | 8208 ft | 164 kts | 206° |
| 2026-04-25 13:50 | 50.29817 | -1.80174 | 8207 ft | 164 kts | 205° |
| 2026-04-25 13:50 | 50.28787 | -1.80878 | 8208 ft | 163 kts | 205° |
| 2026-04-25 13:51 | 50.27747 | -1.81590 | 8199 ft | 164 kts | 206° |
| 2026-04-25 13:51 | 50.26703 | -1.82304 | 8201 ft | 164 kts | 205° |
| 2026-04-25 13:51 | 50.25660 | -1.83016 | 8200 ft | 164 kts | 206° |
| 2026-04-25 13:51 | 50.24617 | -1.83729 | 8199 ft | 164 kts | 205° |
| 2026-04-25 13:52 | 50.23573 | -1.84441 | 8199 ft | 164 kts | 206° |
| 2026-04-25 13:52 | 50.22528 | -1.85154 | 8198 ft | 164 kts | 206° |
| 2026-04-25 13:52 | 50.21485 | -1.85866 | 8196 ft | 164 kts | 206° |
| 2026-04-25 13:52 | 50.20442 | -1.86577 | 8196 ft | 164 kts | 206° |
| 2026-04-25 13:53 | 50.19399 | -1.87288 | 8198 ft | 164 kts | 205° |
| 2026-04-25 13:53 | 50.18356 | -1.87998 | 8199 ft | 164 kts | 205° |
| 2026-04-25 13:53 | 50.17313 | -1.88707 | 8197 ft | 163 kts | 205° |
| 2026-04-25 13:53 | 50.16273 | -1.89415 | 8200 ft | 163 kts | 205° |
| 2026-04-25 13:54 | 50.15233 | -1.90123 | 8201 ft | 163 kts | 205° |
| 2026-04-25 13:54 | 50.14194 | -1.90829 | 8201 ft | 163 kts | 205° |
| 2026-04-25 13:54 | 50.13157 | -1.91533 | 8195 ft | 163 kts | 205° |
| 2026-04-25 13:54 | 50.12120 | -1.92237 | 8195 ft | 162 kts | 205° |
| 2026-04-25 13:55 | 50.11085 | -1.92940 | 8196 ft | 162 kts | 206° |
| 2026-04-25 13:55 | 50.10047 | -1.93645 | 8195 ft | 162 kts | 205° |
| 2026-04-25 13:55 | 50.09011 | -1.94347 | 8195 ft | 162 kts | 205° |
| 2026-04-25 13:55 | 50.07975 | -1.95048 | 8195 ft | 162 kts | 206° |
| 2026-04-25 13:56 | 50.06940 | -1.95751 | 8195 ft | 162 kts | 205° |
| 2026-04-25 13:56 | 50.05903 | -1.96453 | 8196 ft | 162 kts | 206° |
| 2026-04-25 13:56 | 50.04866 | -1.97154 | 8196 ft | 163 kts | 206° |
| 2026-04-25 13:56 | 50.03827 | -1.97858 | 8189 ft | 163 kts | 205° |
| 2026-04-25 13:57 | 50.02789 | -1.98559 | 8189 ft | 163 kts | 205° |
| 2026-04-25 13:57 | 50.02452 | -1.98786 | 8189 ft | 163 kts | 205° |
| 2026-04-25 13:57 | 50.00713 | -1.99962 | 8189 ft | 163 kts | 205° |
| 2026-04-25 13:57 | 49.99674 | -2.00664 | 8188 ft | 163 kts | 205° |
| 2026-04-25 13:58 | 49.98638 | -2.01363 | 8189 ft | 162 kts | 205° |
| 2026-04-25 13:58 | 49.97604 | -2.02061 | 8188 ft | 161 kts | 205° |
| 2026-04-25 13:58 | 49.96577 | -2.02753 | 8188 ft | 161 kts | 205° |
| 2026-04-25 13:58 | 49.95568 | -2.03434 | 8188 ft | 160 kts | 205° |
| 2026-04-25 13:59 | 49.94545 | -2.04123 | 8187 ft | 160 kts | 205° |
| 2026-04-25 13:59 | 49.93524 | -2.04810 | 8187 ft | 160 kts | 205° |
| 2026-04-25 13:59 | 49.92505 | -2.05496 | 8187 ft | 160 kts | 206° |
| 2026-04-25 13:59 | 49.91485 | -2.06183 | 8182 ft | 159 kts | 206° |
| 2026-04-25 14:00 | 49.90804 | -2.06641 | 8184 ft | 157 kts | 206° |
| 2026-04-25 14:00 | 49.89491 | -2.07524 | 8185 ft | 154 kts | 206° |
| 2026-04-25 14:00 | 49.88509 | -2.08183 | 8184 ft | 153 kts | 205° |
| 2026-04-25 14:00 | 49.87532 | -2.08839 | 8183 ft | 153 kts | 205° |
| 2026-04-25 14:01 | 49.86557 | -2.09494 | 8185 ft | 152 kts | 206° |
| 2026-04-25 14:01 | 49.85584 | -2.10147 | 8184 ft | 152 kts | 205° |
| 2026-04-25 14:01 | 49.84614 | -2.10797 | 8183 ft | 152 kts | 205° |
| 2026-04-25 14:01 | 49.83645 | -2.11447 | 8183 ft | 151 kts | 205° |
| 2026-04-25 14:02 | 49.82681 | -2.12093 | 8183 ft | 151 kts | 205° |
| 2026-04-25 14:02 | 49.81715 | -2.12729 | 8182 ft | 151 kts | 204° |
| 2026-04-25 14:02 | 49.80749 | -2.13354 | 8177 ft | 151 kts | 204° |
| 2026-04-25 14:02 | 49.80421 | -2.13562 | 8170 ft | 151 kts | 204° |
| 2026-04-25 14:03 | 49.79129 | -2.14381 | 8180 ft | 150 kts | 204° |
| 2026-04-25 14:03 | 49.78167 | -2.15005 | 8179 ft | 150 kts | 205° |
| 2026-04-25 14:03 | 49.76893 | -2.15819 | 8180 ft | 150 kts | 204° |
| 2026-04-25 14:03 | 49.75926 | -2.16435 | 8104 ft | 154 kts | 204° |
| 2026-04-25 14:04 | 49.74964 | -2.17096 | 8123 ft | 149 kts | 208° |
| 2026-04-25 14:04 | 49.74027 | -2.17779 | 8135 ft | 147 kts | 206° |
| 2026-04-25 14:04 | 49.73093 | -2.18399 | 8177 ft | 144 kts | 206° |
| 2026-04-25 14:04 | 49.72185 | -2.19051 | 8199 ft | 144 kts | 206° |
| 2026-04-25 14:05 | 49.71277 | -2.19708 | 8206 ft | 145 kts | 207° |
| 2026-04-25 14:05 | 49.70675 | -2.20173 | 8189 ft | 146 kts | 215° |
| 2026-04-25 14:05 | 49.70196 | -2.21487 | 8115 ft | 146 kts | 265° |
| 2026-04-25 14:05 | 49.70100 | -2.23030 | 8181 ft | 141 kts | 267° |
| 2026-04-25 14:06 | 49.70036 | -2.24534 | 8215 ft | 139 kts | 267° |
| 2026-04-25 14:06 | 49.69967 | -2.26004 | 8287 ft | 136 kts | 267° |
| 2026-04-25 14:06 | 49.69898 | -2.27484 | 8255 ft | 140 kts | 267° |
| 2026-04-25 14:06 | 49.70252 | -2.28818 | 8223 ft | 141 kts | 322° |
| 2026-04-25 14:07 | 49.71184 | -2.29106 | 8226 ft | 145 kts | 15° |
| 2026-04-25 14:07 | 49.71847 | -2.27997 | 8179 ft | 153 kts | 79° |
| 2026-04-25 14:07 | 49.71525 | -2.26466 | 8206 ft | 150 kts | 122° |
| 2026-04-25 14:07 | 49.70984 | -2.25092 | 8232 ft | 149 kts | 121° |
| 2026-04-25 14:08 | 49.70635 | -2.23602 | 8215 ft | 150 kts | 93° |
| 2026-04-25 14:08 | 49.70624 | -2.22010 | 8290 ft | 147 kts | 84° |
| 2026-04-25 14:08 | 49.70786 | -2.20442 | 8290 ft | 150 kts | 81° |
| 2026-04-25 14:08 | 49.71129 | -2.18944 | 8263 ft | 151 kts | 46° |
| 2026-04-25 14:09 | 49.72065 | -2.18361 | 8233 ft | 149 kts | 354° |
| 2026-04-25 14:09 | 49.72892 | -2.19202 | 8190 ft | 149 kts | 295° |
| 2026-04-25 14:09 | 49.72963 | -2.20775 | 8181 ft | 145 kts | 267° |
| 2026-04-25 14:09 | 49.72924 | -2.21794 | 8202 ft | 142 kts | 267° |
| 2026-04-25 14:10 | 49.72857 | -2.23811 | 8203 ft | 140 kts | 268° |
| 2026-04-25 14:10 | 49.72819 | -2.25330 | 8148 ft | 143 kts | 270° |
| 2026-04-25 14:10 | 49.72824 | -2.26874 | 8127 ft | 143 kts | 271° |
| 2026-04-25 14:10 | 49.72580 | -2.28304 | 8167 ft | 140 kts | 231° |
| 2026-04-25 14:11 | 49.71706 | -2.28932 | 8135 ft | 146 kts | 181° |
| 2026-04-25 14:11 | 49.70788 | -2.28329 | 8146 ft | 147 kts | 136° |
| 2026-04-25 14:11 | 49.70330 | -2.26921 | 8094 ft | 151 kts | 98° |
| 2026-04-25 14:11 | 49.70342 | -2.25304 | 8071 ft | 150 kts | 82° |
| 2026-04-25 14:12 | 49.70486 | -2.23762 | 8114 ft | 147 kts | 80° |
| 2026-04-25 14:12 | 49.70592 | -2.22198 | 8153 ft | 146 kts | 82° |
| 2026-04-25 14:12 | 49.70762 | -2.20656 | 8218 ft | 145 kts | 75° |
| 2026-04-25 14:12 | 49.70911 | -2.19117 | 8276 ft | 145 kts | 84° |
| 2026-04-25 14:13 | 49.70958 | -2.17566 | 8307 ft | 145 kts | 97° |
| 2026-04-25 14:13 | 49.70519 | -2.16167 | 8286 ft | 147 kts | 133° |
| 2026-04-25 14:13 | 49.69659 | -2.15365 | 8265 ft | 147 kts | 168° |
| 2026-04-25 14:13 | 49.68683 | -2.15578 | 8280 ft | 142 kts | 210° |
| 2026-04-25 14:14 | 49.67835 | -2.16383 | 8260 ft | 143 kts | 215° |
| 2026-04-25 14:14 | 49.67014 | -2.17251 | 8260 ft | 143 kts | 216° |
| 2026-04-25 14:14 | 49.66197 | -2.18127 | 8260 ft | 143 kts | 216° |
| 2026-04-25 14:14 | 49.65377 | -2.19005 | 8260 ft | 143 kts | 217° |
| 2026-04-25 14:15 | 49.64557 | -2.19875 | 8258 ft | 143 kts | 216° |
| 2026-04-25 14:15 | 49.64014 | -2.20451 | 8258 ft | 143 kts | 217° |
| 2026-04-25 14:15 | 49.62915 | -2.21603 | 8258 ft | 143 kts | 216° |
| 2026-04-25 14:15 | 49.62096 | -2.22473 | 8258 ft | 143 kts | 216° |
| 2026-04-25 14:16 | 49.61267 | -2.23320 | 8258 ft | 144 kts | 211° |
| 2026-04-25 14:16 | 49.60360 | -2.23983 | 8260 ft | 144 kts | 206° |
| 2026-04-25 14:16 | 49.59447 | -2.24620 | 8261 ft | 144 kts | 206° |
| 2026-04-25 14:16 | 49.58534 | -2.25259 | 8261 ft | 144 kts | 206° |
| 2026-04-25 14:17 | 49.57609 | -2.25857 | 8258 ft | 145 kts | 201° |
| 2026-04-25 14:17 | 49.56648 | -2.26324 | 8259 ft | 144 kts | 199° |
| 2026-04-25 14:17 | 49.55690 | -2.26786 | 8259 ft | 144 kts | 199° |
| 2026-04-25 14:17 | 49.54735 | -2.27252 | 8259 ft | 144 kts | 199° |
| 2026-04-25 14:18 | 49.53778 | -2.27708 | 8259 ft | 144 kts | 199° |
| 2026-04-25 14:18 | 49.52845 | -2.28265 | 8259 ft | 144 kts | 207° |
| 2026-04-25 14:18 | 49.51947 | -2.28938 | 8232 ft | 145 kts | 208° |
| 2026-04-25 14:18 | 49.51020 | -2.29646 | 8106 ft | 150 kts | 208° |
| 2026-04-25 14:19 | 49.50091 | -2.30365 | 7980 ft | 150 kts | 208° |
| 2026-04-25 14:19 | 49.49162 | -2.31085 | 7856 ft | 149 kts | 208° |
| 2026-04-25 14:19 | 49.48234 | -2.31802 | 7740 ft | 149 kts | 208° |
| 2026-04-25 14:19 | 49.47317 | -2.32504 | 7607 ft | 150 kts | 208° |
| 2026-04-25 14:20 | 49.46376 | -2.33223 | 7436 ft | 152 kts | 208° |
| 2026-04-25 14:20 | 49.45737 | -2.33713 | 7320 ft | 152 kts | 208° |
| 2026-04-25 14:20 | 49.44478 | -2.34683 | 7095 ft | 153 kts | 208° |
| 2026-04-25 14:20 | 49.43523 | -2.35412 | 6926 ft | 153 kts | 208° |
| 2026-04-25 14:21 | 49.42562 | -2.36143 | 6762 ft | 155 kts | 208° |
| 2026-04-25 14:21 | 49.41589 | -2.36884 | 6593 ft | 157 kts | 208° |
| 2026-04-25 14:21 | 49.40614 | -2.37633 | 6417 ft | 157 kts | 208° |
| 2026-04-25 14:21 | 49.39642 | -2.38381 | 6232 ft | 156 kts | 208° |
| 2026-04-25 14:22 | 49.38678 | -2.39119 | 6052 ft | 154 kts | 208° |
| 2026-04-25 14:22 | 49.37716 | -2.39847 | 5874 ft | 154 kts | 208° |
| 2026-04-25 14:22 | 49.36759 | -2.40569 | 5696 ft | 153 kts | 208° |
| 2026-04-25 14:22 | 49.35817 | -2.41275 | 5465 ft | 148 kts | 208° |
| 2026-04-25 14:23 | 49.34909 | -2.41947 | 5214 ft | 143 kts | 208° |
| 2026-04-25 14:23 | 49.34021 | -2.42591 | 4967 ft | 140 kts | 208° |
| 2026-04-25 14:23 | 49.33147 | -2.43219 | 4709 ft | 138 kts | 208° |
| 2026-04-25 14:23 | 49.32285 | -2.43844 | 4453 ft | 136 kts | 208° |
| 2026-04-25 14:24 | 49.31433 | -2.44473 | 4202 ft | 136 kts | 208° |
| 2026-04-25 14:24 | 49.30588 | -2.45105 | 3951 ft | 135 kts | 207° |
| 2026-04-25 14:24 | 49.29717 | -2.45642 | 3701 ft | 134 kts | 202° |
| 2026-04-25 14:24 | 49.28845 | -2.46150 | 3452 ft | 134 kts | 202° |
| 2026-04-25 14:25 | 49.27978 | -2.46656 | 3199 ft | 133 kts | 202° |
| 2026-04-25 14:25 | 49.27103 | -2.47154 | 2939 ft | 132 kts | 199° |
| 2026-04-25 14:25 | 49.26245 | -2.47415 | 2852 ft | 123 kts | 182° |
| 2026-04-25 14:25 | 49.25688 | -2.47343 | 2781 ft | 120 kts | 171° |
| 2026-04-25 14:26 | 49.24592 | -2.47083 | 2572 ft | 119 kts | 171° |
| 2026-04-25 14:26 | 49.23776 | -2.46930 | 2448 ft | 116 kts | 172° |
| 2026-04-25 14:26 | 49.22977 | -2.46811 | 2371 ft | 115 kts | 173° |
| 2026-04-25 14:26 | 49.22189 | -2.46655 | 2350 ft | 113 kts | 167° |
| 2026-04-25 14:27 | 49.21417 | -2.46393 | 2280 ft | 115 kts | 165° |
| 2026-04-25 14:27 | 49.20635 | -2.46114 | 2200 ft | 114 kts | 166° |
| 2026-04-25 14:27 | 49.19876 | -2.45917 | 2195 ft | 111 kts | 170° |
| 2026-04-25 14:27 | 49.19164 | -2.45557 | 2175 ft | 107 kts | 138° |
| 2026-04-25 14:28 | 49.18884 | -2.44560 | 2160 ft | 104 kts | 85° |
| 2026-04-25 14:28 | 49.18955 | -2.43476 | 2157 ft | 103 kts | 87° |
| 2026-04-25 14:28 | 49.18987 | -2.42385 | 2168 ft | 103 kts | 89° |
| 2026-04-25 14:28 | 49.19005 | -2.41281 | 2183 ft | 104 kts | 89° |
| 2026-04-25 14:29 | 49.19017 | -2.40173 | 2195 ft | 104 kts | 87° |
| 2026-04-25 14:29 | 49.19086 | -2.39074 | 2211 ft | 105 kts | 83° |
| 2026-04-25 14:29 | 49.19176 | -2.37955 | 2195 ft | 107 kts | 83° |
| 2026-04-25 14:29 | 49.19277 | -2.36838 | 2226 ft | 105 kts | 81° |
| 2026-04-25 14:30 | 49.19404 | -2.35725 | 2223 ft | 106 kts | 79° |
| 2026-04-25 14:30 | 49.19548 | -2.33509 | 2159 ft | 99 kts | 87° |
| 2026-04-25 14:30 | 49.19630 | -2.32486 | 2042 ft | 97 kts | 77° |
| 2026-04-25 14:31 | 49.19813 | -2.31473 | 1907 ft | 101 kts | 75° |
| 2026-04-25 14:31 | 49.19981 | -2.30418 | 1745 ft | 102 kts | 83° |
| 2026-04-25 14:31 | 49.19954 | -2.29386 | 1598 ft | 90 kts | 96° |
| 2026-04-25 14:31 | 49.19980 | -2.28430 | 1370 ft | 86 kts | 81° |
| 2026-04-25 14:32 | 49.20093 | -2.27518 | 1138 ft | 89 kts | 86° |
| 2026-04-25 14:32 | 49.20125 | -2.26627 | 1048 ft | 82 kts | 82° |
| 2026-04-25 14:32 | 49.20230 | -2.25762 | 975 ft | 81 kts | 77° |
| 2026-04-25 14:32 | 49.20302 | -2.24897 | 906 ft | 83 kts | 81° |
| 2026-04-25 14:33 | 49.20397 | -2.24040 | 782 ft | 81 kts | 81° |
| 2026-04-25 14:33 | 49.20483 | -2.23214 | 686 ft | 77 kts | 82° |
| 2026-04-25 14:33 | 49.20559 | -2.22397 | 582 ft | 77 kts | 83° |
| 2026-04-25 14:33 | 49.20626 | -2.21592 | 485 ft | 79 kts | 84° |
| 2026-04-25 14:34 | 49.20697 | -2.20753 | 330 ft | 77 kts | 84° |
| 2026-04-25 14:34 | 49.20759 | -2.20025 | 278 ft | 55 kts | 85° |
| 2026-04-25 14:34 | 49.20798 | -2.19549 | 280 ft | 40 kts | 82° |
| 2026-04-25 14:34 | 49.20820 | -2.19188 | 280 ft | 32 kts | 95° |
| 2026-04-25 14:35 | 49.20756 | -2.18888 | 279 ft | 22 kts | 113° |
| 2026-04-25 14:35 | 49.20699 | -2.18921 | 278 ft | 16 kts | 259° |
| 2026-04-25 14:35 | 49.20694 | -2.18983 | 278 ft | 0 kts | 264° |
| 2026-04-25 14:36 | 49.20691 | -2.19018 | 278 ft | 11 kts | 263° |
| 2026-04-25 14:36 | 49.20679 | -2.19201 | 278 ft | 20 kts | 278° |
| 2026-04-25 14:36 | 49.20710 | -2.19412 | 279 ft | 21 kts | 268° |
| 2026-04-25 14:37 | 49.20682 | -2.19619 | 278 ft | 17 kts | 238° |
| 2026-04-25 14:37 | 49.20598 | -2.19670 | 278 ft | 12 kts | 131° |
| 2026-04-25 14:37 | 49.20579 | -2.19715 | 278 ft | 13 kts | 283° |
| 2026-04-25 14:37 | 49.20570 | -2.19811 | 278 ft | 5 kts | 200° |
| 2026-04-25 14:38 | 49.20547 | -2.19805 | 278 ft | 0 kts | 174° |